createdAt,value
2018-12-14T00:01:50.965Z,69.64
2018-12-14T00:04:20.330Z,69.45
2018-12-14T00:06:49.642Z,69.50
2018-12-14T00:09:18.889Z,69.87
2018-12-14T00:11:48.132Z,69.47
2018-12-14T00:14:17.393Z,69.45
2018-12-14T00:16:46.669Z,69.42
2018-12-14T00:19:15.922Z,69.66
2018-12-14T00:21:45.244Z,69.67
2018-12-14T00:24:14.422Z,69.78
2018-12-14T00:26:43.689Z,69.54
2018-12-14T00:29:12.913Z,69.42
2018-12-14T00:31:42.157Z,69.60
2018-12-14T00:34:11.348Z,69.16
2018-12-14T00:36:40.606Z,69.05
2018-12-14T00:39:09.692Z,69.47
2018-12-14T00:41:38.929Z,68.99
2018-12-14T00:44:08.144Z,69.39
2018-12-14T00:46:41.433Z,69.63
2018-12-14T00:49:10.583Z,69.50
2018-12-14T00:51:39.758Z,69.67
2018-12-14T00:54:09.419Z,69.33
2018-12-14T00:56:38.661Z,69.37
2018-12-14T00:59:07.893Z,69.28
2018-12-14T01:01:37.080Z,69.58
2018-12-14T01:04:06.311Z,69.46
2018-12-14T01:06:35.512Z,69.64
2018-12-14T01:09:06.811Z,69.39
2018-12-14T01:11:36.139Z,69.51
2018-12-14T01:14:05.441Z,69.06
2018-12-14T01:16:34.775Z,69.51
2018-12-14T01:19:04.036Z,69.48
2018-12-14T01:21:33.265Z,69.07
2018-12-14T01:24:02.447Z,69.49
2018-12-14T01:26:31.665Z,68.96
2018-12-14T01:29:00.862Z,69.37
2018-12-14T01:31:30.157Z,68.78
2018-12-14T01:33:59.283Z,68.94
2018-12-14T01:36:28.444Z,69.22
2018-12-14T01:38:57.661Z,69.15
2018-12-14T01:41:26.943Z,68.69
2018-12-14T01:43:56.149Z,69.04
2018-12-14T01:46:25.313Z,68.64
2018-12-14T01:48:54.605Z,68.87
2018-12-14T01:51:23.787Z,68.77
2018-12-14T01:53:53.021Z,68.88
2018-12-14T01:56:22.176Z,68.78
2018-12-14T01:58:51.364Z,68.75
2018-12-14T02:01:20.508Z,68.19
2018-12-14T02:03:49.622Z,68.62
2018-12-14T02:06:18.789Z,68.26
2018-12-14T02:08:47.983Z,68.46
2018-12-14T02:11:17.181Z,68.41
2018-12-14T02:13:46.451Z,68.29
2018-12-14T02:16:15.618Z,67.92
2018-12-14T02:18:44.974Z,67.75
2018-12-14T02:21:14.197Z,68.02
2018-12-14T02:23:43.444Z,67.94
2018-12-14T02:26:12.682Z,68.05
2018-12-14T02:28:41.967Z,68.04
2018-12-14T02:31:11.084Z,67.58
2018-12-14T02:33:40.253Z,68.08
2018-12-14T02:36:09.583Z,68.10
2018-12-14T02:38:38.826Z,67.86
2018-12-14T02:41:08.082Z,68.01
2018-12-14T02:43:37.618Z,67.66
2018-12-14T02:46:06.849Z,67.72
2018-12-14T02:48:36.128Z,68.09
2018-12-14T02:51:05.356Z,67.82
2018-12-14T02:53:34.492Z,67.92
2018-12-14T02:56:03.768Z,68.00
2018-12-14T02:58:32.873Z,68.17
2018-12-14T03:01:03.627Z,67.90
2018-12-14T03:03:32.836Z,68.15
2018-12-14T03:06:02.040Z,68.08
2018-12-14T03:08:31.250Z,68.08
2018-12-14T03:11:00.735Z,67.63
2018-12-14T03:13:36.129Z,67.82
2018-12-14T03:16:05.341Z,67.77
2018-12-14T03:18:34.478Z,68.11
2018-12-14T03:21:03.664Z,67.84
2018-12-14T03:23:32.856Z,67.99
2018-12-14T03:26:02.127Z,67.90
2018-12-14T03:28:31.335Z,67.79
2018-12-14T03:31:00.497Z,67.82
2018-12-14T03:33:29.804Z,67.96
2018-12-14T03:35:59.034Z,67.77
2018-12-14T03:38:28.245Z,67.96
2018-12-14T03:40:57.494Z,67.90
2018-12-14T03:43:26.706Z,67.73
2018-12-14T03:45:55.873Z,68.09
2018-12-14T03:48:25.074Z,67.92
2018-12-14T03:50:54.273Z,67.86
2018-12-14T03:53:23.438Z,68.32
2018-12-14T03:55:52.601Z,67.97
2018-12-14T03:58:21.807Z,68.08
2018-12-14T04:00:51.144Z,68.20
2018-12-14T04:03:20.369Z,67.82
2018-12-14T04:05:49.644Z,67.92
2018-12-14T04:08:18.900Z,68.46
2018-12-14T04:10:48.101Z,68.03
2018-12-14T04:13:17.189Z,68.32
2018-12-14T04:15:49.325Z,68.23
2018-12-14T04:18:18.517Z,68.21
2018-12-14T04:20:47.736Z,68.32
2018-12-14T04:23:16.945Z,68.06
2018-12-14T04:25:46.168Z,68.33
2018-12-14T04:28:15.413Z,68.42
2018-12-14T04:30:44.587Z,68.44
2018-12-14T04:33:13.986Z,67.96
2018-12-14T04:35:43.317Z,67.92
2018-12-14T04:38:12.594Z,67.94
2018-12-14T04:40:41.748Z,68.03
2018-12-14T04:43:11.033Z,68.24
2018-12-14T04:45:40.203Z,68.23
2018-12-14T04:48:09.383Z,68.13
2018-12-14T04:50:38.628Z,68.00
2018-12-14T04:53:07.947Z,67.77
2018-12-14T04:55:37.207Z,67.90
2018-12-14T04:58:06.455Z,67.88
2018-12-14T05:00:35.678Z,67.98
2018-12-14T05:03:04.888Z,67.56
2018-12-14T05:05:34.218Z,67.98
2018-12-14T05:08:03.404Z,67.75
2018-12-14T05:10:32.682Z,67.64
2018-12-14T05:13:01.957Z,67.54
2018-12-14T05:15:31.190Z,67.96
2018-12-14T05:18:00.357Z,68.09
2018-12-14T05:20:29.630Z,67.79
2018-12-14T05:22:58.960Z,68.30
2018-12-14T05:25:28.200Z,68.01
2018-12-14T05:27:57.456Z,68.09
2018-12-14T05:30:26.712Z,67.96
2018-12-14T05:32:55.911Z,68.22
2018-12-14T05:35:25.068Z,68.10
2018-12-14T05:37:54.212Z,68.18
2018-12-14T05:40:23.560Z,67.77
2018-12-14T05:42:52.718Z,67.75
2018-12-14T05:45:21.869Z,67.79
2018-12-14T05:47:51.110Z,67.80
2018-12-14T05:50:20.305Z,67.69
2018-12-14T05:52:49.538Z,68.25
2018-12-14T05:55:18.812Z,67.74
2018-12-14T05:57:48.028Z,67.82
2018-12-14T06:00:17.384Z,68.12
2018-12-14T06:02:53.215Z,67.86
2018-12-14T06:05:22.456Z,67.70
2018-12-14T06:07:51.642Z,67.94
2018-12-14T06:10:20.845Z,67.89
2018-12-14T06:12:50.085Z,67.46
2018-12-14T06:15:19.297Z,67.47
2018-12-14T06:17:48.444Z,67.95
2018-12-14T06:20:17.615Z,68.17
2018-12-14T06:22:46.829Z,67.74
2018-12-14T06:25:16.099Z,67.93
2018-12-14T06:27:45.317Z,67.73
2018-12-14T06:30:14.553Z,67.94
2018-12-14T06:32:43.719Z,68.16
2018-12-14T06:35:13.029Z,68.02
2018-12-14T06:37:42.151Z,67.98
2018-12-14T06:40:11.556Z,68.06
2018-12-14T06:42:40.689Z,68.03
2018-12-14T06:45:10.448Z,67.71
2018-12-14T06:47:39.585Z,68.09
2018-12-14T06:50:08.796Z,68.21
2018-12-14T06:52:38.041Z,68.47
2018-12-14T06:55:07.369Z,68.08
2018-12-14T06:57:36.625Z,68.35
2018-12-14T07:00:06.962Z,67.86
2018-12-14T07:02:36.302Z,67.85
2018-12-14T07:05:05.641Z,67.90
2018-12-14T07:07:34.769Z,67.84
2018-12-14T07:10:04.095Z,67.97
2018-12-14T07:12:33.199Z,67.79
2018-12-14T07:15:02.398Z,67.82
2018-12-14T07:17:31.552Z,67.79
2018-12-14T07:20:00.843Z,67.77
2018-12-14T07:22:30.035Z,67.79
2018-12-14T07:24:59.172Z,67.88
2018-12-14T07:27:28.363Z,67.67
2018-12-14T07:29:57.577Z,67.65
2018-12-14T07:32:26.817Z,67.53
2018-12-14T07:34:56.013Z,67.71
2018-12-14T07:37:25.180Z,67.67
2018-12-14T07:39:54.372Z,67.23
2018-12-14T07:42:23.561Z,67.32
2018-12-14T07:44:52.926Z,67.06
2018-12-14T07:47:22.398Z,67.24
2018-12-14T07:49:51.567Z,67.24
2018-12-14T07:52:20.753Z,67.20
2018-12-14T07:54:49.906Z,67.31
2018-12-14T07:57:19.093Z,66.93
2018-12-14T07:59:48.268Z,69.28
2018-12-14T08:02:17.483Z,69.15
2018-12-14T08:04:46.693Z,68.88
2018-12-14T08:07:16.209Z,67.70
2018-12-14T08:09:45.408Z,67.27
2018-12-14T08:12:14.671Z,66.88
2018-12-14T08:14:43.869Z,67.62
2018-12-14T08:17:13.085Z,66.84
2018-12-14T08:19:42.329Z,66.24
2018-12-14T08:22:11.534Z,65.15
2018-12-14T08:24:40.624Z,65.35
2018-12-14T08:27:09.845Z,67.46
2018-12-14T08:29:39.048Z,65.62
2018-12-14T08:32:08.299Z,65.50
2018-12-14T08:34:37.626Z,65.01
2018-12-14T08:37:06.865Z,64.96
2018-12-14T08:39:36.001Z,64.75
2018-12-14T08:42:05.179Z,64.16
2018-12-14T08:44:34.381Z,63.81
2018-12-14T08:47:03.555Z,64.36
2018-12-14T08:49:32.722Z,64.68
2018-12-14T08:52:01.919Z,64.47
2018-12-14T08:54:31.066Z,64.79
2018-12-14T08:57:00.261Z,65.33
2018-12-14T08:59:29.490Z,64.36
2018-12-14T09:01:58.603Z,65.10
2018-12-14T09:04:27.910Z,65.57
2018-12-14T09:06:57.135Z,65.48
2018-12-14T09:09:26.401Z,64.67
2018-12-14T09:11:55.659Z,64.03
2018-12-14T09:14:24.887Z,63.51
2018-12-14T09:16:54.136Z,63.44
2018-12-14T09:19:23.284Z,63.24
2018-12-14T09:21:52.479Z,63.11
2018-12-14T09:24:21.676Z,62.82
2018-12-14T09:26:50.932Z,63.04
2018-12-14T09:29:20.151Z,63.12
2018-12-14T09:31:49.320Z,63.67
2018-12-14T09:34:18.614Z,63.17
2018-12-14T09:36:47.787Z,63.18
2018-12-14T09:39:17.137Z,62.57
2018-12-14T09:41:46.347Z,62.25
2018-12-14T09:44:15.449Z,62.36
2018-12-14T09:46:44.632Z,62.08
2018-12-14T09:49:13.781Z,63.05
2018-12-14T09:51:42.931Z,63.38
2018-12-14T09:54:12.057Z,62.93
2018-12-14T09:56:41.196Z,62.67
2018-12-14T09:59:10.407Z,61.85
2018-12-14T10:01:39.608Z,61.81
2018-12-14T10:04:08.820Z,61.47
2018-12-14T10:06:38.104Z,61.60
2018-12-14T10:09:07.895Z,62.06
2018-12-14T10:11:37.091Z,61.29
2018-12-14T10:14:06.256Z,61.38
2018-12-14T10:16:35.437Z,61.44
2018-12-14T10:19:04.981Z,61.00
2018-12-14T10:21:34.136Z,61.55
2018-12-14T10:24:03.322Z,61.89
2018-12-14T10:26:32.581Z,61.12
2018-12-14T10:29:01.766Z,61.40
2018-12-14T10:31:30.861Z,61.00
2018-12-14T10:34:00.101Z,62.21
2018-12-14T10:36:29.260Z,61.22
2018-12-14T10:38:58.400Z,61.02
2018-12-14T10:41:27.553Z,61.10
2018-12-14T10:43:56.736Z,60.80
2018-12-14T10:46:25.999Z,61.08
2018-12-14T10:48:55.185Z,60.71
2018-12-14T10:51:24.328Z,60.61
2018-12-14T10:53:53.564Z,60.94
2018-12-14T10:56:22.748Z,60.74
2018-12-14T10:58:51.944Z,60.67
2018-12-14T11:01:26.493Z,60.47
2018-12-14T11:03:55.653Z,60.83
2018-12-14T11:06:24.885Z,60.71
2018-12-14T11:08:54.110Z,60.10
2018-12-14T11:11:23.311Z,59.81
2018-12-14T11:13:52.580Z,59.87
2018-12-14T11:16:21.710Z,59.24
2018-12-14T11:18:50.988Z,60.21
2018-12-14T11:21:20.216Z,60.03
2018-12-14T11:23:49.442Z,60.36
2018-12-14T11:26:18.725Z,60.09
2018-12-14T11:28:47.949Z,59.80
2018-12-14T11:31:17.181Z,59.66
2018-12-14T11:33:46.377Z,60.04
2018-12-14T11:36:15.545Z,59.34
2018-12-14T11:38:44.745Z,59.60
2018-12-14T11:41:18.482Z,59.84
2018-12-14T11:43:45.168Z,60.31
2018-12-14T11:46:14.388Z,60.07
2018-12-14T11:48:43.584Z,59.11
2018-12-14T11:51:17.177Z,59.93
2018-12-14T11:53:46.334Z,59.52
2018-12-14T11:56:15.517Z,59.91
2018-12-14T11:58:44.776Z,60.10
2018-12-14T12:01:13.998Z,60.02
2018-12-14T12:03:43.248Z,60.42
2018-12-14T12:06:12.425Z,60.45
2018-12-14T12:08:41.602Z,59.94
2018-12-14T12:11:10.793Z,60.41
2018-12-14T12:13:39.996Z,59.83
2018-12-14T12:16:09.176Z,59.43
2018-12-14T12:18:38.392Z,60.18
2018-12-14T12:21:07.558Z,59.32
2018-12-14T12:23:36.927Z,59.37
2018-12-14T12:26:06.134Z,59.43
2018-12-14T12:28:35.315Z,59.47
2018-12-14T12:31:04.422Z,60.08
2018-12-14T12:33:33.668Z,59.60
2018-12-14T12:36:02.905Z,59.24
2018-12-14T12:38:37.958Z,58.87
2018-12-14T12:41:03.364Z,58.65
2018-12-14T12:43:32.558Z,58.67
2018-12-14T12:46:01.695Z,58.84
2018-12-14T12:48:30.904Z,58.03
2018-12-14T12:51:03.072Z,58.42
2018-12-14T12:53:31.456Z,58.81
2018-12-14T12:56:00.592Z,58.75
2018-12-14T12:58:29.805Z,58.62
2018-12-14T13:00:59.024Z,58.79
2018-12-14T13:03:28.120Z,59.04
2018-12-14T13:05:57.260Z,59.07
2018-12-14T13:08:26.464Z,59.69
2018-12-14T13:10:55.680Z,59.02
2018-12-14T13:13:24.961Z,58.54
2018-12-14T13:15:54.173Z,59.30
2018-12-14T13:18:23.368Z,59.04
2018-12-14T13:20:52.550Z,59.18
2018-12-14T13:23:21.688Z,59.19
2018-12-14T13:25:50.936Z,59.68
2018-12-14T13:28:20.276Z,59.50
2018-12-14T13:30:49.989Z,59.11
2018-12-14T13:33:19.407Z,59.76
2018-12-14T13:35:48.760Z,59.26
2018-12-14T13:38:17.965Z,59.22
2018-12-14T13:40:47.295Z,59.83
2018-12-14T13:43:16.471Z,59.51
2018-12-14T13:45:45.866Z,60.12
2018-12-14T13:48:15.154Z,60.25
2018-12-14T13:50:44.362Z,60.03
2018-12-14T13:53:13.561Z,59.95
2018-12-14T13:55:42.746Z,59.42
2018-12-14T13:58:11.950Z,60.09
2018-12-14T14:00:41.190Z,60.25
2018-12-14T14:03:10.428Z,60.57
2018-12-14T14:05:39.654Z,60.85
2018-12-14T14:08:08.819Z,60.51
2018-12-14T14:10:38.017Z,60.71
2018-12-14T14:13:07.273Z,60.85
2018-12-14T14:15:36.469Z,61.10
2018-12-14T14:18:05.650Z,61.26
2018-12-14T14:20:34.877Z,61.06
2018-12-14T14:23:04.033Z,61.02
2018-12-14T14:25:33.390Z,62.49
2018-12-14T14:28:02.513Z,60.75
2018-12-14T14:30:31.690Z,61.10
2018-12-14T14:33:00.975Z,61.51
2018-12-14T14:35:30.142Z,61.39
2018-12-14T14:37:59.287Z,61.22
2018-12-14T14:40:28.461Z,61.55
2018-12-14T14:42:57.678Z,61.74
2018-12-14T14:45:26.910Z,61.98
2018-12-14T14:47:56.086Z,62.15
2018-12-14T14:50:25.265Z,62.33
2018-12-14T14:52:54.495Z,62.64
2018-12-14T14:55:23.756Z,62.71
2018-12-14T14:57:53.078Z,62.51
2018-12-14T15:00:22.411Z,62.55
2018-12-14T15:02:51.634Z,62.43
2018-12-14T15:05:20.853Z,62.55
2018-12-14T15:07:50.092Z,62.80
2018-12-14T15:10:19.365Z,62.88
2018-12-14T15:12:48.694Z,62.96
2018-12-14T15:15:17.949Z,63.32
2018-12-14T15:17:47.231Z,63.30
2018-12-14T15:20:16.505Z,63.53
2018-12-14T15:22:45.746Z,63.24
2018-12-14T15:25:14.951Z,63.39
2018-12-14T15:27:44.185Z,63.95
2018-12-14T15:30:13.404Z,63.94
2018-12-14T15:32:42.550Z,63.68
2018-12-14T15:35:11.754Z,64.13
2018-12-14T15:37:40.967Z,64.19
2018-12-14T15:40:12.629Z,63.80
2018-12-14T15:42:41.882Z,63.97
2018-12-14T15:45:13.183Z,63.99
2018-12-14T15:47:42.364Z,64.33
2018-12-14T15:50:11.589Z,64.66
2018-12-14T15:52:40.785Z,64.34
2018-12-14T15:55:10.008Z,64.29
2018-12-14T15:57:39.232Z,63.88
2018-12-14T16:00:08.782Z,64.09
2018-12-14T16:02:38.002Z,64.03
2018-12-14T16:05:07.520Z,64.80
2018-12-14T16:07:36.868Z,64.55
2018-12-14T16:10:06.658Z,64.50
2018-12-14T16:12:35.933Z,66.16
2018-12-14T16:15:06.686Z,66.31
2018-12-14T16:17:36.726Z,64.01
2018-12-14T16:20:08.448Z,63.70
2018-12-14T16:22:37.797Z,64.58
2018-12-14T16:25:08.450Z,62.94
2018-12-14T16:27:37.961Z,62.84
2018-12-14T16:30:10.465Z,62.75
2018-12-14T16:32:40.654Z,63.25
2018-12-14T16:35:11.533Z,63.83
2018-12-14T16:37:41.583Z,63.92
2018-12-14T16:40:10.785Z,63.81
2018-12-14T16:42:39.995Z,64.16
2018-12-14T16:45:09.418Z,64.43
2018-12-14T16:47:38.641Z,64.55
2018-12-14T16:50:08.073Z,64.85
2018-12-14T16:52:37.237Z,64.94
2018-12-14T16:55:08.134Z,64.96
2018-12-14T16:57:37.382Z,65.55
2018-12-14T17:00:08.349Z,65.82
2018-12-14T17:02:37.776Z,65.88
2018-12-14T17:05:07.358Z,66.50
2018-12-14T17:07:36.960Z,66.02
2018-12-14T17:10:06.662Z,66.43
2018-12-14T17:12:35.787Z,66.15
2018-12-14T17:15:05.778Z,66.60
2018-12-14T17:17:35.008Z,66.66
2018-12-14T17:20:04.465Z,66.97
2018-12-14T17:22:33.725Z,66.99
2018-12-14T17:25:03.218Z,66.60
2018-12-14T17:27:32.488Z,66.71
2018-12-14T17:30:01.715Z,67.11
2018-12-14T17:32:30.932Z,67.43
2018-12-14T17:35:00.178Z,67.13
2018-12-14T17:37:29.328Z,67.21
2018-12-14T17:39:58.579Z,67.46
2018-12-14T17:42:27.803Z,67.20
2018-12-14T17:44:57.046Z,67.43
2018-12-14T17:47:26.272Z,67.76
2018-12-14T17:49:55.480Z,68.02
2018-12-14T17:52:24.656Z,68.04
2018-12-14T17:54:53.901Z,67.65
2018-12-14T17:57:23.208Z,67.95
2018-12-14T17:59:52.421Z,67.87
2018-12-14T18:02:21.551Z,67.96
2018-12-14T18:04:50.783Z,67.77
2018-12-14T18:07:19.946Z,68.24
2018-12-14T18:09:49.097Z,67.80
2018-12-14T18:12:18.375Z,67.99
2018-12-14T18:14:47.535Z,68.03
2018-12-14T18:17:16.828Z,68.09
2018-12-14T18:19:46.008Z,67.86
2018-12-14T18:22:15.220Z,68.33
2018-12-14T18:24:44.469Z,68.39
2018-12-14T18:27:13.744Z,68.23
2018-12-14T18:29:42.887Z,68.39
2018-12-14T18:32:12.066Z,67.83
2018-12-14T18:34:41.389Z,67.78
2018-12-14T18:37:10.632Z,68.02
2018-12-14T18:39:39.845Z,67.72
2018-12-14T18:42:09.049Z,67.84
2018-12-14T18:44:38.248Z,67.51
2018-12-14T18:47:07.468Z,68.01
2018-12-14T18:49:36.655Z,67.69
2018-12-14T18:52:05.844Z,67.65
2018-12-14T18:54:35.074Z,67.84
2018-12-14T18:57:04.236Z,67.92
2018-12-14T18:59:33.463Z,68.18
2018-12-14T19:02:02.672Z,68.19
2018-12-14T19:04:31.789Z,67.99
2018-12-14T19:07:01.244Z,68.07
2018-12-14T19:09:30.548Z,68.67
2018-12-14T19:11:59.902Z,68.47
2018-12-14T19:14:29.088Z,68.28
2018-12-14T19:16:58.300Z,68.29
2018-12-14T19:19:27.640Z,68.52
2018-12-14T19:21:56.761Z,68.43
2018-12-14T19:24:25.958Z,67.88
2018-12-14T19:26:55.165Z,68.60
2018-12-14T19:29:24.302Z,68.71
2018-12-14T19:31:53.548Z,68.57
2018-12-14T19:34:22.779Z,68.73
2018-12-14T19:36:51.891Z,68.48
2018-12-14T19:39:21.103Z,68.70
2018-12-14T19:41:50.376Z,69.05
2018-12-14T19:44:19.492Z,69.21
2018-12-14T19:46:48.696Z,68.72
2018-12-14T19:49:17.857Z,68.92
2018-12-14T19:51:47.268Z,69.13
2018-12-14T19:54:16.898Z,68.77
2018-12-14T19:56:46.367Z,68.81
2018-12-14T19:59:15.656Z,69.30
2018-12-14T20:01:45.006Z,69.32
2018-12-14T20:04:14.239Z,68.95
2018-12-14T20:06:43.472Z,68.91
2018-12-14T20:09:12.692Z,68.70
2018-12-14T20:11:41.889Z,69.30
2018-12-14T20:14:11.216Z,69.14
2018-12-14T20:16:40.426Z,69.10
2018-12-14T20:19:09.608Z,68.96
2018-12-14T20:21:38.882Z,69.16
2018-12-14T20:24:07.997Z,68.94
2018-12-14T20:26:37.148Z,69.04
2018-12-14T20:29:06.393Z,68.92
2018-12-14T20:31:35.537Z,69.17
2018-12-14T20:34:04.770Z,68.76
2018-12-14T20:36:34.008Z,69.02
2018-12-14T20:39:03.216Z,68.69
2018-12-14T20:41:32.356Z,68.94
2018-12-14T20:44:01.654Z,69.17
2018-12-14T20:46:30.920Z,68.67
2018-12-14T20:49:00.151Z,69.09
2018-12-14T20:51:29.348Z,69.20
2018-12-14T20:53:58.557Z,68.96
2018-12-14T20:56:27.893Z,69.43
2018-12-14T20:58:57.165Z,68.67
2018-12-14T21:01:26.457Z,69.15
2018-12-14T21:03:55.657Z,68.90
2018-12-14T21:06:24.914Z,69.00
2018-12-14T21:08:54.071Z,69.14
2018-12-14T21:11:23.284Z,69.14
2018-12-14T21:13:52.437Z,69.55
2018-12-14T21:16:25.905Z,69.81
2018-12-14T21:18:52.954Z,69.47
2018-12-14T21:21:22.178Z,69.20
2018-12-14T21:23:51.422Z,69.03
2018-12-14T21:26:20.567Z,69.44
2018-12-14T21:28:49.750Z,68.83
2018-12-14T21:31:18.955Z,68.90
2018-12-14T21:33:48.109Z,68.90
2018-12-14T21:36:17.380Z,68.75
2018-12-14T21:38:46.555Z,68.86
2018-12-14T21:41:15.790Z,68.89
2018-12-14T21:43:45.026Z,69.11
2018-12-14T21:46:14.274Z,68.79
2018-12-14T21:48:43.444Z,69.12
2018-12-14T21:51:12.591Z,69.09
2018-12-14T21:53:41.861Z,68.87
2018-12-14T21:56:11.045Z,69.39
2018-12-14T21:58:40.203Z,69.62
2018-12-14T22:01:09.427Z,69.35
2018-12-14T22:03:38.665Z,69.19
2018-12-14T22:06:07.848Z,69.38
2018-12-14T22:08:37.069Z,69.34
2018-12-14T22:11:06.332Z,69.59
2018-12-14T22:13:35.569Z,69.45
2018-12-14T22:16:04.875Z,69.85
2018-12-14T22:18:34.165Z,69.64
2018-12-14T22:21:03.445Z,69.67
2018-12-14T22:23:32.684Z,69.67
2018-12-14T22:26:01.796Z,69.84
2018-12-14T22:28:31.032Z,70.01
2018-12-14T22:31:00.261Z,69.58
2018-12-14T22:33:29.446Z,69.43
2018-12-14T22:35:58.772Z,69.65
2018-12-14T22:38:28.046Z,69.59
2018-12-14T22:40:57.168Z,69.72
2018-12-14T22:43:26.272Z,70.11
2018-12-14T22:45:55.398Z,69.56
2018-12-14T22:48:24.590Z,69.60
2018-12-14T22:50:53.740Z,69.73
2018-12-14T22:53:22.896Z,69.87
2018-12-14T22:55:52.157Z,70.07
2018-12-14T22:58:21.299Z,70.30
2018-12-14T23:00:53.801Z,70.24
2018-12-14T23:03:23.104Z,70.30
2018-12-14T23:05:52.329Z,70.36
2018-12-14T23:08:21.646Z,70.55
2018-12-14T23:10:50.818Z,70.42
2018-12-14T23:13:20.081Z,70.73
2018-12-14T23:15:49.263Z,70.43
2018-12-14T23:18:18.413Z,70.64
2018-12-14T23:20:47.532Z,70.72
2018-12-14T23:23:16.712Z,70.70
2018-12-14T23:25:45.844Z,70.70
2018-12-14T23:28:15.067Z,70.25
2018-12-14T23:30:44.261Z,70.45
2018-12-14T23:33:13.447Z,70.30
2018-12-14T23:35:42.605Z,70.52
2018-12-14T23:38:11.808Z,70.00
2018-12-14T23:40:41.001Z,69.68
2018-12-14T23:43:10.120Z,69.87
2018-12-14T23:45:39.343Z,70.22
2018-12-14T23:48:08.534Z,69.95
2018-12-14T23:50:37.649Z,70.17
2018-12-14T23:53:06.807Z,69.78
2018-12-14T23:55:36.016Z,69.64
2018-12-14T23:58:05.240Z,69.56
